createdAt,value
2019-04-11T00:00:35.351Z,16.13
2019-04-11T00:02:39.187Z,15.93
2019-04-11T00:04:43.056Z,15.67
2019-04-11T00:06:47.843Z,14.93
2019-04-11T00:08:52.328Z,15.83
2019-04-11T00:10:56.204Z,15.23
2019-04-11T00:13:01.103Z,14.70
2019-04-11T00:15:06.428Z,15.40
2019-04-11T00:17:10.255Z,15.33
2019-04-11T00:19:13.949Z,15.10
2019-04-11T00:21:17.623Z,15.50
2019-04-11T00:23:21.818Z,15.13
2019-04-11T00:25:25.627Z,14.37
2019-04-11T00:27:29.312Z,14.93
2019-04-11T00:29:34.437Z,14.83
2019-04-11T00:31:39.050Z,15.67
2019-04-11T00:33:42.937Z,14.50
2019-04-11T00:35:46.627Z,14.33
2019-04-11T00:37:50.300Z,14.67
2019-04-11T00:39:54.182Z,14.17
2019-04-11T00:41:58.653Z,14.90
2019-04-11T00:44:03.016Z,14.70
2019-04-11T00:46:07.795Z,13.67
2019-04-11T00:48:11.651Z,14.23
2019-04-11T00:50:15.438Z,15.00
2019-04-11T00:52:19.099Z,14.30
2019-04-11T00:54:22.887Z,14.00
2019-04-11T00:56:28.595Z,15.27
2019-04-11T00:58:32.316Z,13.23
2019-04-11T01:00:37.068Z,14.20
2019-04-11T01:02:43.232Z,13.80
2019-04-11T01:04:47.089Z,14.40
2019-04-11T01:06:50.734Z,13.17
2019-04-11T01:08:54.421Z,14.07
2019-04-11T01:10:59.324Z,12.63
2019-04-11T01:13:03.123Z,14.67
2019-04-11T01:15:08.678Z,14.47
2019-04-11T01:17:12.817Z,14.10
2019-04-11T01:19:16.501Z,13.67
2019-04-11T01:21:20.191Z,13.60
2019-04-11T01:23:23.850Z,14.00
2019-04-11T01:25:28.468Z,13.67
2019-04-11T01:27:32.293Z,14.33
2019-04-11T01:29:35.945Z,12.90
2019-04-11T01:31:42.747Z,13.67
2019-04-11T01:33:46.686Z,14.07
2019-04-11T01:35:50.450Z,14.37
2019-04-11T01:37:54.114Z,13.60
2019-04-11T01:39:59.473Z,12.70
2019-04-11T01:42:04.892Z,13.23
2019-04-11T01:44:08.954Z,13.40
2019-04-11T01:46:13.956Z,12.27
2019-04-11T01:48:19.639Z,14.43
2019-04-11T01:50:25.172Z,12.97
2019-04-11T01:52:29.071Z,13.60
2019-04-11T01:54:32.782Z,14.03
2019-04-11T01:56:37.035Z,12.33
2019-04-11T01:58:40.885Z,13.83
2019-04-11T02:01:01.199Z,12.83
2019-04-11T02:03:06.850Z,12.53
2019-04-11T02:05:14.886Z,13.10
2019-04-11T02:07:18.574Z,12.57
2019-04-11T02:09:24.091Z,13.53
2019-04-11T02:11:27.878Z,12.43
2019-04-11T02:13:32.165Z,13.33
2019-04-11T02:15:36.674Z,12.80
2019-04-11T02:17:41.133Z,13.10
2019-04-11T02:19:44.915Z,12.60
2019-04-11T02:21:49.930Z,13.17
2019-04-11T02:23:57.967Z,12.77
2019-04-11T02:26:07.057Z,13.17
2019-04-11T02:28:12.747Z,13.17
2019-04-11T02:30:20.035Z,13.30
2019-04-11T02:32:25.367Z,13.93
2019-04-11T02:34:29.689Z,13.07
2019-04-11T02:36:34.264Z,13.00
2019-04-11T02:38:39.531Z,13.83
2019-04-11T02:40:45.367Z,12.97
2019-04-11T02:42:50.360Z,13.27
2019-04-11T02:45:09.269Z,12.27
2019-04-11T02:47:07.880Z,13.07
2019-04-11T02:49:06.779Z,13.43
2019-04-11T02:51:12.453Z,12.90
2019-04-11T02:53:17.068Z,12.87
2019-04-11T02:55:21.347Z,13.60
2019-04-11T02:57:25.852Z,13.10
2019-04-11T02:59:30.298Z,14.17
2019-04-11T03:01:35.864Z,13.03
2019-04-11T03:03:41.676Z,13.03
2019-04-11T03:05:46.854Z,13.27
2019-04-11T03:07:50.595Z,13.93
2019-04-11T03:09:56.474Z,13.30
2019-04-11T03:11:59.790Z,14.07
2019-04-11T03:14:04.118Z,12.97
2019-04-11T03:16:23.645Z,13.07
2019-04-11T03:18:33.258Z,14.17
2019-04-11T03:20:26.475Z,13.20
2019-04-11T03:22:24.829Z,14.57
2019-04-11T03:24:31.060Z,13.63
2019-04-11T03:26:35.497Z,13.57
2019-04-11T03:28:46.310Z,13.93
2019-04-11T03:31:21.945Z,14.67
2019-04-11T03:35:52.294Z,14.10
2019-04-11T03:37:28.394Z,15.13
2019-04-11T03:39:28.205Z,14.47
2019-04-11T03:41:26.709Z,14.80
2019-04-11T03:43:30.215Z,14.27
2019-04-11T03:45:48.059Z,14.50
2019-04-11T03:47:42.432Z,14.40
2019-04-11T03:49:44.821Z,14.23
2019-04-11T03:51:43.618Z,13.90
2019-04-11T03:53:49.084Z,14.57
2019-04-11T03:55:53.784Z,13.73
2019-04-11T03:57:59.185Z,14.37
2019-04-11T04:00:06.361Z,13.00
2019-04-11T04:02:12.278Z,14.80
2019-04-11T04:04:18.870Z,14.70
2019-04-11T04:06:21.076Z,15.07
2019-04-11T04:08:26.838Z,14.00
2019-04-11T04:10:31.795Z,15.03
2019-04-11T04:12:37.702Z,15.27
2019-04-11T04:14:45.285Z,14.80
2019-04-11T04:17:03.673Z,14.63
2019-04-11T04:19:24.841Z,14.57
2019-04-11T04:21:31.174Z,15.00
2019-04-11T04:23:40.934Z,14.23
2019-04-11T04:25:47.153Z,15.27
2019-04-11T04:27:51.297Z,15.67
2019-04-11T04:29:57.742Z,15.17
2019-04-11T04:32:00.654Z,15.40
2019-04-11T04:34:07.307Z,14.70
2019-04-11T04:36:11.883Z,14.37
2019-04-11T04:38:16.661Z,15.27
2019-04-11T04:40:40.271Z,14.90
2019-04-11T04:42:32.132Z,14.80
2019-04-11T04:44:31.689Z,15.00
2019-04-11T04:46:54.835Z,15.73
2019-04-11T04:48:42.606Z,15.67
2019-04-11T04:50:46.774Z,16.17
2019-04-11T04:52:51.560Z,15.37
2019-04-11T04:54:57.698Z,16.13
2019-04-11T04:57:02.885Z,15.20
2019-04-11T04:59:07.588Z,14.87
2019-04-11T05:01:12.694Z,15.10
2019-04-11T05:03:17.750Z,15.90
2019-04-11T05:05:22.071Z,16.27
2019-04-11T05:07:29.272Z,16.33
2019-04-11T05:09:32.051Z,15.63
2019-04-11T05:11:36.238Z,15.80
2019-04-11T05:13:40.891Z,15.47
2019-04-11T05:15:45.424Z,15.07
2019-04-11T05:17:49.245Z,16.67
2019-04-11T05:19:54.349Z,17.50
2019-04-11T05:21:58.169Z,16.77
2019-04-11T05:24:02.069Z,15.90
2019-04-11T05:26:06.854Z,15.80
2019-04-11T05:28:12.013Z,16.30
2019-04-11T05:30:16.735Z,16.03
2019-04-11T05:32:21.813Z,15.47
2019-04-11T05:34:25.864Z,16.37
2019-04-11T05:36:30.422Z,17.10
2019-04-11T05:38:34.306Z,16.67
2019-04-11T05:40:37.988Z,16.30
2019-04-11T05:42:41.772Z,16.27
2019-04-11T05:44:45.570Z,17.37
2019-04-11T05:46:55.718Z,15.10
2019-04-11T05:49:00.545Z,16.23
2019-04-11T05:51:01.627Z,17.83
2019-04-11T05:53:05.603Z,16.70
2019-04-11T05:55:13.555Z,17.77
2019-04-11T05:57:22.144Z,15.97
2019-04-11T05:59:24.442Z,16.80
2019-04-11T06:01:34.080Z,15.63
2019-04-11T06:03:41.110Z,17.07
2019-04-11T06:05:56.452Z,17.50
2019-04-11T06:08:00.730Z,16.47
2019-04-11T06:10:24.133Z,17.17
2019-04-11T06:12:41.938Z,15.90
2019-04-11T06:14:59.694Z,16.10
2019-04-11T06:17:05.200Z,15.90
2019-04-11T06:19:19.243Z,16.57
2019-04-11T06:21:31.677Z,16.10
2019-04-11T06:23:49.891Z,17.37
2019-04-11T06:25:55.616Z,16.67
2019-04-11T06:28:01.932Z,16.60
2019-04-11T06:30:22.234Z,17.33
2019-04-11T06:32:34.124Z,16.07
2019-04-11T06:34:49.208Z,16.60
2019-04-11T06:37:13.819Z,17.13
2019-04-11T06:39:35.747Z,17.13
2019-04-11T06:41:44.261Z,15.80
2019-04-11T06:44:04.754Z,16.80
2019-04-11T06:46:27.174Z,15.70
2019-04-11T06:48:35.869Z,15.90
2019-04-11T06:50:41.665Z,16.67
2019-04-11T06:52:46.322Z,16.97
2019-04-11T06:54:52.440Z,17.00
2019-04-11T06:56:57.317Z,17.13
2019-04-11T06:59:03.850Z,15.97
2019-04-11T07:01:09.791Z,17.07
2019-04-11T07:03:22.265Z,17.47
2019-04-11T07:05:22.491Z,17.30
2019-04-11T07:07:29.492Z,16.30
2019-04-11T07:09:34.971Z,16.40
2019-04-11T07:11:46.071Z,17.23
2019-04-11T07:14:08.251Z,17.57
2019-04-11T07:16:13.253Z,16.77
2019-04-11T07:18:37.838Z,17.10
2019-04-11T07:20:52.492Z,16.20
2019-04-11T07:23:14.127Z,16.90
2019-04-11T07:25:22.309Z,17.30
2019-04-11T07:27:26.215Z,16.50
2019-04-11T07:29:44.247Z,17.03
2019-04-11T07:31:50.406Z,16.40
2019-04-11T07:34:08.761Z,17.50
2019-04-11T07:36:31.550Z,16.07
2019-04-11T07:38:54.369Z,17.40
2019-04-11T07:41:00.654Z,17.77
2019-04-11T07:43:11.517Z,18.53
2019-04-11T07:45:23.091Z,19.47
2019-04-11T07:47:32.336Z,18.30
2019-04-11T07:49:47.162Z,18.17
2019-04-11T07:51:52.796Z,17.60
2019-04-11T07:53:56.824Z,19.53
2019-04-11T07:56:02.055Z,18.23
2019-04-11T07:58:22.444Z,17.50
2019-04-11T08:00:40.911Z,17.97
2019-04-11T08:02:46.346Z,18.00
2019-04-11T08:04:57.644Z,18.50
2019-04-11T08:07:02.986Z,17.73
2019-04-11T08:09:09.668Z,19.07
2019-04-11T08:11:17.899Z,19.53
2019-04-11T08:13:28.866Z,18.97
2019-04-11T08:15:50.472Z,18.63
2019-04-11T08:17:54.360Z,18.43
2019-04-11T08:20:17.224Z,17.30
2019-04-11T08:22:41.297Z,19.37
2019-04-11T08:24:53.192Z,18.40
2019-04-11T08:27:07.317Z,18.47
2019-04-11T08:29:14.943Z,19.53
2019-04-11T08:31:27.093Z,18.83
2019-04-11T08:33:32.894Z,19.27
2019-04-11T08:35:38.295Z,19.07
2019-04-11T08:38:02.851Z,19.67
2019-04-11T08:40:09.388Z,19.13
2019-04-11T08:42:17.682Z,20.03
2019-04-11T08:44:21.615Z,20.03
2019-04-11T08:46:26.989Z,18.97
2019-04-11T08:48:33.032Z,20.63
2019-04-11T08:50:38.668Z,19.27
2019-04-11T08:52:49.712Z,19.97
2019-04-11T08:54:55.699Z,19.23
2019-04-11T08:56:59.516Z,19.67
2019-04-11T08:59:13.469Z,19.03
2019-04-11T09:01:22.235Z,18.73
2019-04-11T09:03:37.741Z,19.93
2019-04-11T09:05:55.314Z,20.07
2019-04-11T09:08:04.381Z,19.37
2019-04-11T09:10:35.828Z,19.60
2019-04-11T09:12:42.624Z,19.00
2019-04-11T09:15:04.415Z,19.07
2019-04-11T09:17:16.516Z,21.53
2019-04-11T09:19:27.696Z,20.53
2019-04-11T09:21:34.109Z,21.27
2019-04-11T09:23:38.815Z,20.60
2019-04-11T09:26:03.516Z,21.43
2019-04-11T09:28:11.968Z,22.67
2019-04-11T09:30:21.540Z,19.27
2019-04-11T09:32:42.491Z,19.50
2019-04-11T09:34:48.198Z,19.53
2019-04-11T09:36:57.497Z,19.50
2019-04-11T09:39:19.286Z,19.90
2019-04-11T09:41:40.717Z,19.73
2019-04-11T09:43:46.312Z,20.00
2019-04-11T09:46:08.189Z,19.53
2019-04-11T09:48:29.926Z,22.13
2019-04-11T09:50:36.359Z,20.77
2019-04-11T09:52:51.602Z,20.70
2019-04-11T09:54:57.044Z,21.03
2019-04-11T09:57:02.353Z,19.37
2019-04-11T09:59:14.310Z,21.10
2019-04-11T10:01:35.103Z,19.60
2019-04-11T10:03:39.262Z,20.13
2019-04-11T10:05:48.602Z,20.27
2019-04-11T10:07:54.511Z,21.33
2019-04-11T10:10:02.945Z,20.13
2019-04-11T10:12:24.272Z,20.00
2019-04-11T10:14:29.295Z,20.17
2019-04-11T10:16:37.276Z,20.60
2019-04-11T10:18:49.421Z,21.13
2019-04-11T10:20:55.000Z,21.30
2019-04-11T10:23:01.636Z,19.27
2019-04-11T10:25:08.881Z,19.83
2019-04-11T10:27:20.511Z,20.33
2019-04-11T10:29:37.823Z,21.77
2019-04-11T10:31:46.465Z,20.00
2019-04-11T10:34:06.747Z,21.07
2019-04-11T10:36:21.101Z,21.17
2019-04-11T10:38:24.866Z,21.33
2019-04-11T10:40:46.215Z,20.07
2019-04-11T10:42:50.495Z,21.10
2019-04-11T10:44:58.329Z,21.50
2019-04-11T10:47:08.340Z,22.83
2019-04-11T10:49:30.298Z,21.70
2019-04-11T10:51:45.629Z,22.60
2019-04-11T10:53:51.208Z,21.80
2019-04-11T10:55:57.858Z,21.63
2019-04-11T10:58:06.750Z,20.90
2019-04-11T11:00:15.662Z,21.23
2019-04-11T11:02:37.680Z,20.90
2019-04-11T11:04:43.162Z,22.67
2019-04-11T11:06:48.505Z,21.50
2019-04-11T11:09:08.675Z,21.57
2019-04-11T11:11:15.666Z,21.33
2019-04-11T11:13:21.649Z,22.50
2019-04-11T11:15:29.978Z,23.03
2019-04-11T11:18:20.591Z,23.07
2019-04-11T11:20:15.277Z,24.13
2019-04-11T11:22:27.379Z,22.90
2019-04-11T11:24:33.670Z,22.73
2019-04-11T11:26:38.884Z,23.73
2019-04-11T11:28:44.504Z,21.13
2019-04-11T11:31:05.740Z,23.77
2019-04-11T11:33:10.990Z,24.23
2019-04-11T11:35:22.468Z,22.70
2019-04-11T11:37:37.851Z,23.87
2019-04-11T11:39:43.669Z,24.17
2019-04-11T11:42:06.174Z,25.13
2019-04-11T11:44:11.668Z,23.37
2019-04-11T11:46:17.817Z,23.77
2019-04-11T11:48:36.461Z,25.87
2019-04-11T11:50:40.375Z,24.73
2019-04-11T11:52:48.969Z,24.97
2019-04-11T11:54:53.597Z,24.00
2019-04-11T11:56:58.207Z,22.57
2019-04-11T11:59:09.630Z,25.73
2019-04-11T12:01:15.677Z,24.50
2019-04-11T12:03:27.706Z,24.60
2019-04-11T12:05:30.703Z,24.17
2019-04-11T12:07:42.968Z,24.73
2019-04-11T12:10:04.769Z,25.13
2019-04-11T12:12:10.013Z,25.00
2019-04-11T12:14:31.423Z,24.57
2019-04-11T12:16:36.960Z,25.63
2019-04-11T12:18:48.430Z,24.00
2019-04-11T12:21:01.084Z,25.00
2019-04-11T12:23:06.691Z,26.00
2019-04-11T12:25:14.614Z,25.20
2019-04-11T12:27:20.578Z,25.80
2019-04-11T12:29:45.577Z,24.57
2019-04-11T12:31:50.245Z,25.70
2019-04-11T12:34:12.354Z,25.87
2019-04-11T12:36:18.756Z,26.17
2019-04-11T12:38:24.767Z,25.43
2019-04-11T12:40:46.951Z,26.47
2019-04-11T12:42:50.694Z,26.60
2019-04-11T12:45:12.199Z,27.87
2019-04-11T12:47:20.527Z,25.93
2019-04-11T12:49:25.839Z,26.30
2019-04-11T12:51:47.135Z,26.47
2019-04-11T12:53:50.838Z,25.77
2019-04-11T12:56:13.474Z,26.37
2019-04-11T12:58:30.647Z,27.47
2019-04-11T13:00:41.787Z,27.33
2019-04-11T13:03:05.379Z,25.00
2019-04-11T13:05:10.736Z,26.53
2019-04-11T13:07:18.825Z,26.53
2019-04-11T13:09:40.671Z,26.30
2019-04-11T13:11:49.174Z,28.43
2019-04-11T13:14:00.146Z,27.20
2019-04-11T13:16:11.817Z,27.17
2019-04-11T13:18:12.367Z,27.00
2019-04-11T13:20:32.496Z,27.03
2019-04-11T13:22:36.247Z,26.00
2019-04-11T13:24:59.424Z,25.80
2019-04-11T13:27:16.705Z,26.73
2019-04-11T13:29:33.547Z,27.33
2019-04-11T13:31:47.708Z,25.70
2019-04-11T13:33:52.948Z,26.33
2019-04-11T13:36:14.601Z,27.33
2019-04-11T13:38:19.875Z,26.33
2019-04-11T13:40:40.202Z,27.73
2019-04-11T13:42:48.087Z,27.27
2019-04-11T13:44:51.754Z,27.63
2019-04-11T13:46:57.007Z,27.83
2019-04-11T13:49:02.266Z,28.10
2019-04-11T13:51:25.403Z,29.07
2019-04-11T13:53:33.474Z,28.67
2019-04-11T13:55:37.159Z,27.83
2019-04-11T13:57:58.910Z,27.40
2019-04-11T14:00:12.859Z,27.13
2019-04-11T14:02:18.095Z,27.00
2019-04-11T14:04:25.971Z,25.93
2019-04-11T14:06:29.621Z,26.80
2019-04-11T14:08:34.895Z,26.07
2019-04-11T14:10:40.363Z,29.03
2019-04-11T14:12:45.330Z,29.07
2019-04-11T14:14:51.859Z,27.83
2019-04-11T14:16:58.415Z,27.97
2019-04-11T14:19:07.170Z,28.13
2019-04-11T14:21:21.561Z,27.83
2019-04-11T14:23:26.805Z,28.53
2019-04-11T14:25:34.877Z,25.70
2019-04-11T14:27:38.662Z,27.40
2019-04-11T14:29:56.095Z,26.57
2019-04-11T14:32:01.359Z,25.27
2019-04-11T14:34:09.074Z,28.67
2019-04-11T14:36:33.610Z,25.60
2019-04-11T14:38:45.643Z,27.27
2019-04-11T14:41:01.886Z,26.27
2019-04-11T14:43:19.607Z,27.43
2019-04-11T14:45:42.835Z,26.37
2019-04-11T14:48:04.148Z,26.73
2019-04-11T14:50:12.892Z,27.30
2019-04-11T14:52:32.886Z,26.53
2019-04-11T14:54:38.207Z,25.27
2019-04-11T14:56:59.620Z,27.27
2019-04-11T14:59:16.830Z,26.67
2019-04-11T15:01:27.970Z,25.80
2019-04-11T15:03:32.291Z,25.77
2019-04-11T15:05:46.134Z,25.90
2019-04-11T15:07:50.059Z,25.67
2019-04-11T15:09:57.875Z,26.87
2019-04-11T15:12:06.131Z,26.97
2019-04-11T15:14:15.770Z,26.50
2019-04-11T15:16:33.242Z,26.03
2019-04-11T15:18:38.477Z,26.90
2019-04-11T15:20:55.242Z,25.07
2019-04-11T15:23:07.070Z,27.83
2019-04-11T15:25:15.267Z,27.50
2019-04-11T15:27:38.552Z,27.93
2019-04-11T15:29:45.439Z,27.00
2019-04-11T15:31:51.980Z,27.13
2019-04-11T15:34:13.632Z,25.20
2019-04-11T15:36:27.623Z,26.67
2019-04-11T15:38:44.158Z,25.73
2019-04-11T15:40:48.742Z,25.97
2019-04-11T15:42:54.174Z,27.40
2019-04-11T15:45:08.258Z,27.17
2019-04-11T15:47:24.970Z,26.70
2019-04-11T15:49:48.021Z,25.07
2019-04-11T15:51:53.279Z,25.27
2019-04-11T15:54:17.106Z,26.13
2019-04-11T15:56:41.846Z,24.83
2019-04-11T15:58:50.023Z,26.70
2019-04-11T16:01:02.519Z,26.47
2019-04-11T16:03:06.938Z,24.33
2019-04-11T16:05:18.473Z,25.40
2019-04-11T16:07:29.648Z,24.83
2019-04-11T16:09:35.914Z,25.87
2019-04-11T16:11:53.230Z,26.10
2019-04-11T16:13:58.581Z,29.53
2019-04-11T16:16:07.164Z,28.27
2019-04-11T16:18:19.916Z,27.23
2019-04-11T16:20:24.317Z,27.30
2019-04-11T16:22:29.566Z,27.37
2019-04-11T16:24:37.329Z,26.40
2019-04-11T16:26:48.324Z,25.13
2019-04-11T16:28:59.523Z,25.50
2019-04-11T16:31:03.227Z,25.03
2019-04-11T16:33:08.561Z,26.97
2019-04-11T16:35:19.635Z,25.80
2019-04-11T16:37:23.307Z,27.20
2019-04-11T16:39:37.594Z,27.30
2019-04-11T16:42:00.748Z,26.70
2019-04-11T16:44:24.874Z,25.07
2019-04-11T16:46:31.528Z,25.70
2019-04-11T16:48:35.203Z,24.87
2019-04-11T16:50:38.894Z,25.80
2019-04-11T16:52:42.579Z,24.87
2019-04-11T16:54:46.261Z,26.20
2019-04-11T16:56:49.985Z,26.57
2019-04-11T16:58:53.655Z,26.13
2019-04-11T17:00:57.337Z,24.73
2019-04-11T17:03:01.030Z,24.27
2019-04-11T17:05:07.242Z,25.70
2019-04-11T17:07:30.359Z,24.63
2019-04-11T17:09:40.614Z,25.00
2019-04-11T17:11:44.306Z,27.03
2019-04-11T17:13:47.988Z,30.03
2019-04-11T17:15:51.741Z,28.93
2019-04-11T17:17:59.734Z,25.67
2019-04-11T17:20:05.832Z,28.37
2019-04-11T17:22:08.715Z,28.53
2019-04-11T17:24:16.753Z,26.53
2019-04-11T17:26:18.362Z,28.13
2019-04-11T17:28:23.093Z,24.53
2019-04-11T17:30:27.435Z,23.00
2019-04-11T17:32:31.147Z,25.87
2019-04-11T17:34:34.931Z,24.23
2019-04-11T17:36:38.690Z,24.00
2019-04-11T17:38:42.383Z,24.07
2019-04-11T17:40:46.089Z,24.10
2019-04-11T17:42:49.750Z,24.80
2019-04-11T17:44:53.458Z,23.97
2019-04-11T17:46:57.392Z,24.33
2019-04-11T17:49:01.215Z,24.00
2019-04-11T17:51:05.696Z,24.00
2019-04-11T17:53:09.762Z,24.37
2019-04-11T17:55:13.448Z,25.03
2019-04-11T17:57:17.147Z,24.53
2019-04-11T17:59:20.846Z,26.27
2019-04-11T18:01:24.510Z,24.23
2019-04-11T18:03:28.503Z,24.20
2019-04-11T18:05:32.274Z,23.83
2019-04-11T18:07:35.969Z,25.00
2019-04-11T18:09:39.880Z,23.20
2019-04-11T18:11:43.539Z,24.03
2019-04-11T18:13:47.223Z,22.07
2019-04-11T18:15:50.890Z,21.57
2019-04-11T18:17:54.567Z,21.60
2019-04-11T18:19:58.265Z,21.60
2019-04-11T18:22:07.789Z,21.90
2019-04-11T18:24:07.465Z,21.90
2019-04-11T18:26:11.143Z,22.80
2019-04-11T18:28:14.806Z,22.87
2019-04-11T18:30:20.903Z,21.30
2019-04-11T18:32:24.461Z,22.23
2019-04-11T18:34:31.573Z,20.70
2019-04-11T18:36:33.565Z,21.43
2019-04-11T18:38:37.281Z,25.60
2019-04-11T18:40:40.956Z,23.20
2019-04-11T18:42:44.610Z,24.80
2019-04-11T18:44:48.304Z,25.23
2019-04-11T18:46:52.236Z,29.23
2019-04-11T18:48:55.920Z,27.57
2019-04-11T18:50:59.702Z,70.47
2019-04-11T18:53:03.421Z,83.63
2019-04-11T18:55:07.846Z,79.07
2019-04-11T18:57:11.509Z,68.50
2019-04-11T18:59:15.306Z,24.00
2019-04-11T19:01:19.099Z,22.90
2019-04-11T19:03:22.763Z,22.73
2019-04-11T19:05:28.799Z,22.53
2019-04-11T19:07:31.882Z,23.33
2019-04-11T19:09:35.551Z,23.37
2019-04-11T19:11:39.365Z,21.97
2019-04-11T19:13:46.767Z,23.77
2019-04-11T19:15:48.463Z,21.73
2019-04-11T19:18:05.576Z,23.07
2019-04-11T19:19:57.632Z,22.30
2019-04-11T19:22:01.339Z,23.67
2019-04-11T19:24:09.079Z,23.07
2019-04-11T19:26:14.536Z,24.27
2019-04-11T19:28:16.002Z,23.53
2019-04-11T19:30:19.679Z,22.90
2019-04-11T19:32:23.380Z,24.27
2019-04-11T19:34:27.092Z,27.73
2019-04-11T19:36:30.895Z,24.47
2019-04-11T19:38:36.246Z,22.70
2019-04-11T19:40:39.910Z,23.23
2019-04-11T19:42:43.633Z,20.80
2019-04-11T19:44:49.595Z,21.77
2019-04-11T19:46:52.685Z,21.10
2019-04-11T19:48:59.316Z,21.13
2019-04-11T19:51:01.790Z,20.83
2019-04-11T19:53:05.494Z,21.30
2019-04-11T19:55:11.039Z,20.97
2019-04-11T19:57:14.738Z,21.57
2019-04-11T19:59:18.407Z,20.57
2019-04-11T20:01:23.458Z,20.80
2019-04-11T20:03:27.310Z,21.00
2019-04-11T20:05:30.972Z,21.10
2019-04-11T20:07:34.663Z,20.93
2019-04-11T20:09:38.340Z,20.33
2019-04-11T20:11:44.714Z,20.00
2019-04-11T20:13:47.881Z,21.70
2019-04-11T20:15:51.548Z,19.73
2019-04-11T20:17:55.269Z,20.37
2019-04-11T20:20:01.626Z,19.27
2019-04-11T20:22:08.257Z,19.97
2019-04-11T20:24:14.079Z,19.60
2019-04-11T20:26:15.241Z,19.20
2019-04-11T20:28:19.890Z,18.17
2019-04-11T20:30:25.400Z,19.50
2019-04-11T20:32:30.609Z,19.17
2019-04-11T20:34:38.285Z,19.10
2019-04-11T20:36:41.266Z,17.97
2019-04-11T20:38:45.606Z,18.60
2019-04-11T20:40:52.113Z,17.57
2019-04-11T20:42:55.006Z,18.83
2019-04-11T20:44:59.190Z,17.23
2019-04-11T20:47:02.957Z,18.27
2019-04-11T20:49:07.238Z,16.57
2019-04-11T20:51:10.903Z,16.63
2019-04-11T20:53:14.569Z,16.73
2019-04-11T20:55:18.351Z,16.70
2019-04-11T20:57:25.857Z,17.43
2019-04-11T20:59:34.408Z,16.63
2019-04-11T21:01:32.995Z,17.23
2019-04-11T21:03:36.655Z,16.23
2019-04-11T21:05:40.875Z,15.07
2019-04-11T21:07:44.603Z,15.50
2019-04-11T21:09:48.264Z,14.33
2019-04-11T21:11:51.963Z,15.50
2019-04-11T21:13:55.636Z,14.97
2019-04-11T21:15:59.354Z,14.73
2019-04-11T21:18:03.114Z,14.67
2019-04-11T21:20:07.813Z,14.43
2019-04-11T21:22:11.503Z,14.13
2019-04-11T21:24:15.281Z,15.03
2019-04-11T21:26:19.025Z,14.87
2019-04-11T21:28:22.706Z,15.00
2019-04-11T21:30:29.958Z,14.83
2019-04-11T21:32:32.069Z,14.53
2019-04-11T21:34:36.889Z,13.77
2019-04-11T21:36:40.771Z,14.13
2019-04-11T21:38:44.443Z,14.77
2019-04-11T21:40:48.147Z,13.40
2019-04-11T21:42:51.806Z,15.00
2019-04-11T21:44:55.481Z,14.30
2019-04-11T21:46:59.185Z,15.23
2019-04-11T21:49:06.065Z,15.07
2019-04-11T21:51:11.041Z,15.07
2019-04-11T21:53:14.972Z,14.83
2019-04-11T21:55:18.795Z,15.37
2019-04-11T21:57:22.478Z,14.80
2019-04-11T21:59:26.245Z,14.40
2019-04-11T22:01:31.263Z,15.30
2019-04-11T22:03:34.951Z,15.03
2019-04-11T22:05:38.723Z,15.37
2019-04-11T22:07:42.441Z,15.53
2019-04-11T22:09:46.116Z,14.33
2019-04-11T22:11:49.810Z,15.33
2019-04-11T22:13:53.520Z,14.10
2019-04-11T22:15:57.197Z,15.80
2019-04-11T22:18:00.935Z,16.33
2019-04-11T22:20:06.223Z,16.03
2019-04-11T22:22:09.976Z,18.93
2019-04-11T22:24:13.619Z,18.97
2019-04-11T22:26:17.292Z,21.13
2019-04-11T22:28:24.069Z,22.00
2019-04-11T22:30:28.922Z,18.00
2019-04-11T22:32:32.600Z,17.47
2019-04-11T22:34:46.492Z,17.43
2019-04-11T22:36:50.279Z,16.47
2019-04-11T22:38:53.959Z,17.17
2019-04-11T22:41:01.597Z,16.30
2019-04-11T22:43:07.161Z,17.67
2019-04-11T22:45:09.197Z,20.83
2019-04-11T22:47:12.966Z,18.43
2019-04-11T22:49:16.619Z,27.87
2019-04-11T22:51:20.312Z,26.27
2019-04-11T22:53:23.998Z,21.13
2019-04-11T22:55:27.674Z,25.47
2019-04-11T22:57:31.387Z,28.00
2019-04-11T22:59:38.128Z,26.73
2019-04-11T23:01:41.995Z,20.40
2019-04-11T23:03:53.231Z,18.30
2019-04-11T23:05:56.890Z,16.97
2019-04-11T23:08:02.762Z,19.27
2019-04-11T23:10:08.931Z,16.20
2019-04-11T23:12:12.717Z,18.00
2019-04-11T23:14:18.002Z,20.00
2019-04-11T23:16:21.671Z,19.87
2019-04-11T23:18:25.358Z,20.47
2019-04-11T23:20:29.051Z,19.40
2019-04-11T23:22:32.713Z,20.70
2019-04-11T23:24:36.410Z,22.20
2019-04-11T23:26:40.194Z,24.60
2019-04-11T23:28:46.727Z,29.13
2019-04-11T23:30:50.385Z,20.63
2019-04-11T23:32:54.137Z,19.20
2019-04-11T23:34:57.825Z,19.53
2019-04-11T23:37:01.490Z,18.57
2019-04-11T23:39:06.902Z,17.87
2019-04-11T23:41:10.562Z,18.23
2019-04-11T23:43:15.369Z,17.20
2019-04-11T23:45:23.947Z,16.90
2019-04-11T23:47:27.608Z,17.73
2019-04-11T23:49:31.307Z,18.90
2019-04-11T23:51:35.071Z,19.27
2019-04-11T23:53:38.815Z,17.77
2019-04-11T23:55:42.511Z,16.77
2019-04-11T23:57:46.181Z,16.97
2019-04-11T23:59:49.898Z,16.67
